Time;durP1;ratioP1;P1;durP2;ratioP2;P2;SDS_P1;SDS_P2;PMS_P1;PMS_P2;Temp;Humidity;BMP_temperature;BMP_pressure;BME280_temperature;BME280_humidity;BME280_pressure;Samples;Min_cycle;Max_cycle;Signal;HPM_P1;HPM_P2
2021/07/22 00:02:26;;;;;;;12.25;7.17;;;;;;;19.49;70.91;101320.67;5248941;56;21683;-82
2021/07/22 00:07:32;;;;;;;12.75;6.25;;;;;;;19.52;71.07;101322.20;5143330;57;21095;-81
2021/07/22 00:12:37;;;;;;;13.15;5.70;;;;;;;19.47;70.73;101322.63;5236189;56;21158;-81
2021/07/22 00:17:43;;;;;;;12.35;5.35;;;;;;;19.35;70.76;101321.21;5224659;56;21158;-81
2021/07/22 00:22:49;;;;;;;6.08;4.83;;;;;;;19.25;71.30;101327.15;5131633;57;21198;-82
2021/07/22 00:27:55;;;;;;;9.18;5.87;;;;;;;19.16;71.34;101330.27;5219590;56;21188;-81
2021/07/22 00:33:01;;;;;;;14.95;7.83;;;;;;;19.07;71.11;101332.55;5148537;57;21255;-82
2021/07/22 00:38:06;;;;;;;8.65;5.90;;;;;;;19.00;71.09;101327.45;5221554;56;21104;-82
2021/07/22 00:43:12;;;;;;;10.53;6.03;;;;;;;19.00;71.16;101326.61;5223174;56;21593;-81
2021/07/22 00:48:18;;;;;;;7.95;5.83;;;;;;;19.04;71.49;101323.97;5130073;57;21162;-81
2021/07/22 00:53:25;;;;;;;7.85;6.20;;;;;;;19.08;71.75;101317.31;5222512;56;21179;-81
2021/07/22 00:58:33;;;;;;;8.53;6.45;;;;;;;19.14;72.11;101312.15;5211663;56;21211;-82
2021/07/22 01:03:39;;;;;;;8.55;5.35;;;;;;;19.20;72.35;101315.56;5215522;56;21163;-81
2021/07/22 01:08:45;;;;;;;9.70;5.37;;;;;;;19.25;72.32;101315.08;5128350;57;21174;-81
2021/07/22 01:13:53;;;;;;;8.38;6.40;;;;;;;19.36;72.57;101320.22;5168377;57;21187;-81
2021/07/22 01:19:01;;;;;;;9.15;6.65;;;;;;;19.46;72.68;101314.23;5242220;56;21214;-82
2021/07/22 01:24:07;;;;;;;8.03;5.25;;;;;;;19.55;72.66;101317.88;5242018;56;21239;-81
2021/07/22 01:29:12;;;;;;;9.23;6.25;;;;;;;19.51;72.37;101312.47;5155571;57;21150;-81
2021/07/22 01:34:18;;;;;;;14.13;6.25;;;;;;;19.31;72.29;101306.42;5156604;57;21216;-82
2021/07/22 01:39:25;;;;;;;9.60;5.75;;;;;;;19.13;72.44;101307.78;5138820;57;21217;-82
2021/07/22 01:44:31;;;;;;;10.03;5.92;;;;;;;19.13;73.02;101310.96;5224392;56;21609;-82
2021/07/22 01:49:37;;;;;;;8.23;6.42;;;;;;;19.08;73.27;101306.09;5150945;57;21254;-83
2021/07/22 01:54:43;;;;;;;8.60;5.90;;;;;;;19.13;73.83;101300.23;5155773;57;21216;-82
2021/07/22 01:59:49;;;;;;;20.92;5.78;;;;;;;19.20;74.00;101304.00;5152590;57;21164;-82
2021/07/22 02:04:55;;;;;;;6.10;5.05;;;;;;;19.25;73.89;101297.14;5163471;57;21675;-82
2021/07/22 02:10:01;;;;;;;15.68;5.97;;;;;;;19.35;74.19;101300.25;5209288;56;21202;-83
2021/07/22 02:15:08;;;;;;;6.25;5.33;;;;;;;19.43;74.24;101302.97;5153348;57;21120;-82
2021/07/22 02:20:15;;;;;;;6.53;5.55;;;;;;;19.44;74.24;101302.82;5157848;57;21162;-82
2021/07/22 02:25:22;;;;;;;7.62;5.42;;;;;;;19.46;74.36;101310.72;5154818;57;21167;-83
2021/07/22 02:30:30;;;;;;;10.25;5.92;;;;;;;19.32;73.76;101308.95;5234890;56;21202;-83
2021/07/22 02:35:35;;;;;;;13.13;5.05;;;;;;;19.13;73.85;101310.47;5154331;57;21170;-83
2021/07/22 02:40:59;;;;;;;5.53;5.00;;;;;;;18.94;74.07;101317.36;5145898;57;21510;-83
2021/07/22 02:46:09;;;;;;;11.63;5.50;;;;;;;18.79;74.53;101322.38;5199384;56;21186;-83
2021/07/22 02:51:17;;;;;;;10.25;5.50;;;;;;;18.67;74.87;101322.27;5156881;56;21190;-83
2021/07/22 02:56:23;;;;;;;6.28;5.67;;;;;;;18.72;75.44;101315.13;5160461;56;21175;-83
2021/07/22 03:01:30;;;;;;;9.10;6.92;;;;;;;18.81;75.41;101312.85;5162859;56;21124;-82
2021/07/22 03:06:36;;;;;;;14.45;8.15;;;;;;;18.78;75.24;101315.86;5159639;56;22140;-84
2021/07/22 03:11:42;;;;;;;8.85;6.20;;;;;;;18.68;75.23;101313.73;5155550;56;21155;-82
2021/07/22 03:16:49;;;;;;;7.40;5.73;;;;;;;18.58;75.38;101317.34;5150838;57;21687;-83
2021/07/22 03:21:56;;;;;;;8.60;7.08;;;;;;;18.52;75.36;101316.55;5151650;57;21100;-83
2021/07/22 03:27:19;;;;;;;;;;;;;;;18.49;75.59;101314.66;5156729;57;21104;-83
2021/07/22 03:32:26;;;;;;;8.63;6.23;;;;;;;18.56;76.24;101316.61;5121634;57;20146;-83
2021/07/22 03:37:32;;;;;;;8.08;6.40;;;;;;;18.67;76.38;101320.08;5128741;58;21526;-84
2021/07/22 03:42:39;;;;;;;7.25;5.72;;;;;;;18.80;76.32;101321.39;5150629;57;21188;-83
2021/07/22 03:47:50;;;;;;;12.43;6.63;;;;;;;18.89;76.04;101314.28;5099663;57;21185;-82
2021/07/22 03:52:57;;;;;;;12.55;6.37;;;;;;;18.93;76.28;101315.67;5066089;58;21240;-83
2021/07/22 03:58:04;;;;;;;7.97;6.67;;;;;;;18.98;76.48;101311.52;5150639;57;21199;-82
2021/07/22 04:03:11;;;;;;;12.00;6.58;;;;;;;19.00;76.39;101318.56;5154502;57;21096;-84
2021/07/22 04:08:19;;;;;;;7.75;6.85;;;;;;;18.99;76.34;101312.36;5153133;57;21155;-83
2021/07/22 04:13:32;;;;;;;10.25;6.28;;;;;;;19.03;76.42;101317.77;5234795;56;22129;-83
2021/07/22 04:18:39;;;;;;;8.55;5.35;;;;;;;19.05;76.43;101320.30;5242443;56;21190;-83
2021/07/22 04:24:02;;;;;;;;;;;;;;;18.98;76.30;101326.76;5249512;56;21091;-83
2021/07/22 04:29:18;;;;;;;8.80;5.80;;;;;;;18.88;76.42;101327.34;5247598;56;20489;-82
2021/07/22 04:34:24;;;;;;;7.12;5.72;;;;;;;18.78;76.48;101330.11;5244027;56;21203;-83
2021/07/22 04:39:43;;;;;;;8.70;6.10;;;;;;;18.69;76.74;101338.20;5241300;56;21163;-83
2021/07/22 04:44:53;;;;;;;10.65;6.60;;;;;;;18.57;77.08;101329.01;5138751;57;21167;-82
2021/07/22 04:50:16;;;;;;;11.28;6.80;;;;;;;18.53;77.30;101325.44;5243389;56;21516;-84
2021/07/22 04:55:36;;;;;;;9.73;6.05;;;;;;;18.58;77.64;101326.71;5050889;57;21159;-83
2021/07/22 05:00:42;;;;;;;11.30;6.30;;;;;;;18.58;77.73;101329.39;5213831;56;21175;-84
2021/07/22 05:05:48;;;;;;;12.65;7.45;;;;;;;18.56;77.79;101325.14;5212106;56;21176;-82
2021/07/22 05:11:08;;;;;;;8.40;7.27;;;;;;;18.59;77.69;101326.22;5204294;56;21624;-84
2021/07/22 05:16:16;;;;;;;11.83;7.22;;;;;;;18.66;77.78;101323.26;5152112;56;21692;-85
2021/07/22 05:21:23;;;;;;;12.97;8.00;;;;;;;18.74;77.36;101318.00;5148971;56;21559;-83
2021/07/22 05:26:40;;;;;;;12.73;9.13;;;;;;;18.78;77.38;101322.56;5149613;56;21579;-82
2021/07/22 05:31:50;;;;;;;13.22;9.40;;;;;;;18.85;77.22;101319.11;5115170;57;21614;-82
2021/07/22 05:37:13;;;;;;;11.45;7.28;;;;;;;18.89;76.73;101327.19;5149851;56;21168;-83
2021/07/22 05:42:23;;;;;;;16.30;8.78;;;;;;;18.92;76.35;101320.19;5149932;56;22072;-82
2021/07/22 05:47:29;;;;;;;18.23;7.03;;;;;;;18.94;76.34;101323.53;5151096;56;21173;-83
2021/07/22 05:52:34;;;;;;;18.25;7.67;;;;;;;18.98;76.32;101322.23;5149885;56;21212;-83
2021/07/22 05:57:40;;;;;;;11.75;7.12;;;;;;;18.98;76.07;101318.72;5148129;56;21564;-82
2021/07/22 06:02:46;;;;;;;17.95;7.58;;;;;;;19.01;75.71;101321.59;5170867;56;21104;-82
2021/07/22 06:07:51;;;;;;;10.05;7.45;;;;;;;19.00;75.79;101322.58;5189250;56;21681;-83
2021/07/22 06:12:58;;;;;;;13.53;7.47;;;;;;;19.05;76.18;101323.81;5151000;57;21166;-83
2021/07/22 06:18:04;;;;;;;9.38;7.08;;;;;;;19.09;76.22;101326.55;5124460;56;21900;-82
2021/07/22 06:23:10;;;;;;;16.45;7.78;;;;;;;19.11;76.73;101320.50;5152780;56;21123;-82
2021/07/22 06:28:15;;;;;;;11.50;6.97;;;;;;;19.14;76.85;101317.52;5149930;57;21219;-82
2021/07/22 06:33:22;;;;;;;14.43;6.60;;;;;;;19.19;76.76;101319.74;5151286;57;21167;-82
2021/07/22 06:38:33;;;;;;;7.35;6.45;;;;;;;19.20;76.47;101323.61;5158088;57;21164;-82
2021/07/22 06:43:38;;;;;;;7.72;6.37;;;;;;;19.17;76.14;101313.69;5061781;57;21886;-82
2021/07/22 06:48:47;;;;;;;14.28;7.50;;;;;;;19.10;76.00;101318.81;5151546;57;21230;-82
2021/07/22 06:53:54;;;;;;;11.40;5.95;;;;;;;19.12;75.64;101326.20;5152987;56;21155;-82
2021/07/22 06:58:59;;;;;;;10.88;6.08;;;;;;;19.19;75.73;101339.36;5184950;56;21206;-82
2021/07/22 07:04:05;;;;;;;9.40;6.40;;;;;;;19.21;75.08;101329.82;5156858;57;21218;-82
2021/07/22 07:09:10;;;;;;;6.80;5.45;;;;;;;19.16;74.92;101336.13;5165281;57;21201;-85
2021/07/22 07:14:16;;;;;;;9.23;5.87;;;;;;;19.13;74.94;101331.08;5155546;57;21182;-82
2021/07/22 07:19:22;;;;;;;8.85;5.87;;;;;;;19.13;74.52;101335.09;5152598;57;21202;-84
2021/07/22 07:24:28;;;;;;;14.13;5.60;;;;;;;19.10;75.09;101332.22;5242405;56;21166;-82
2021/07/22 07:29:34;;;;;;;8.68;6.37;;;;;;;19.15;74.90;101333.11;5154246;57;21218;-82
2021/07/22 07:34:39;;;;;;;13.78;6.00;;;;;;;19.18;74.73;101328.78;5240910;56;21203;-83
2021/07/22 07:39:45;;;;;;;11.15;5.42;;;;;;;19.20;74.83;101329.47;5243326;56;21159;-83
2021/07/22 07:44:52;;;;;;;11.35;5.90;;;;;;;19.25;74.58;101328.48;5152685;57;21167;-83
2021/07/22 07:49:58;;;;;;;7.67;4.60;;;;;;;19.26;74.11;101326.99;5151784;57;21202;-82
2021/07/22 07:55:07;;;;;;;8.38;5.65;;;;;;;19.23;73.90;101325.98;5240753;56;21207;-81
2021/07/22 08:00:14;;;;;;;12.28;5.87;;;;;;;19.25;73.95;101321.28;5088081;57;21169;-84
2021/07/22 08:05:20;;;;;;;11.90;5.00;;;;;;;19.29;74.29;101329.87;5163784;57;21161;-80
2021/07/22 08:10:25;;;;;;;9.90;4.87;;;;;;;19.41;74.44;101327.27;5197259;56;21544;-80
2021/07/22 08:15:31;;;;;;;12.10;6.12;;;;;;;19.52;73.97;101324.39;5154114;56;21255;-74
2021/07/22 08:20:37;;;;;;;6.87;5.22;;;;;;;19.63;73.71;101329.48;5187504;56;21165;-77
2021/07/22 08:25:43;;;;;;;39.20;7.37;;;;;;;19.77;73.42;101318.66;5238021;56;21158;-75
2021/07/22 08:30:48;;;;;;;7.10;4.62;;;;;;;19.89;73.40;101325.44;5106301;57;21179;-78
2021/07/22 08:35:55;;;;;;;9.08;5.70;;;;;;;19.96;72.57;101317.59;5150768;57;21171;-76
2021/07/22 08:41:02;;;;;;;6.62;5.65;;;;;;;20.00;72.49;101317.12;5174055;56;21159;-76
2021/07/22 08:46:09;;;;;;;5.60;4.75;;;;;;;20.14;72.61;101310.80;5315649;55;21155;-78
2021/07/22 08:51:14;;;;;;;8.30;4.97;;;;;;;20.21;71.68;101309.97;5318220;55;21146;-80
2021/07/22 08:56:24;;;;;;;6.90;4.95;;;;;;;20.20;71.10;101314.16;5295490;55;21150;-77
2021/07/22 09:01:33;;;;;;;7.53;5.85;;;;;;;20.27;71.81;101309.84;5068417;58;22028;-77
2021/07/22 09:06:38;;;;;;;13.20;6.30;;;;;;;20.41;71.79;101312.43;5163709;57;21174;-80
2021/07/22 09:11:59;;;;;;;7.78;5.25;;;;;;;20.54;72.03;101306.08;5162795;57;21166;-81
2021/07/22 09:17:04;;;;;;;8.33;5.75;;;;;;;20.70;71.69;101304.77;5165217;56;21192;-86
2021/07/22 09:22:11;;;;;;;14.23;6.20;;;;;;;20.92;72.03;101301.45;5231131;56;21155;-79
2021/07/22 09:27:43;;;;;;;9.35;5.60;;;;;;;21.00;70.65;101301.44;5186066;56;21525;-80
2021/07/22 09:32:50;;;;;;;8.80;5.47;;;;;;;21.08;70.31;101304.11;5168061;56;21089;-80
2021/07/22 09:37:58;;;;;;;6.92;5.70;;;;;;;21.15;69.65;101301.59;5201829;55;21211;-85
2021/07/22 09:43:04;;;;;;;7.62;5.05;;;;;;;21.28;69.48;101288.50;5184550;56;21427;-80
2021/07/22 09:48:12;;;;;;;7.60;5.28;;;;;;;21.41;68.35;101284.78;5199543;56;21166;-80
2021/07/22 09:53:20;;;;;;;8.98;5.72;;;;;;;21.50;67.83;101288.31;5206893;55;21175;-80
2021/07/22 09:58:25;;;;;;;9.48;6.30;;;;;;;21.53;67.55;101279.06;5139499;56;21210;-78
2021/07/22 10:03:34;;;;;;;8.98;5.45;;;;;;;21.72;67.42;101275.96;5115805;56;21200;-80
2021/07/22 10:08:41;;;;;;;10.23;6.12;;;;;;;21.95;67.35;101271.52;5194340;55;21200;-83
2021/07/22 10:13:48;;;;;;;8.78;6.80;;;;;;;22.26;67.95;101258.09;5166906;56;21166;-84
2021/07/22 10:18:58;;;;;;;6.50;4.00;;;;;;;22.52;65.29;101259.10;5214155;56;21156;-82
2021/07/22 10:24:05;;;;;;;7.22;5.17;;;;;;;22.73;63.75;101250.37;5217649;55;21088;-77
2021/07/22 10:29:11;;;;;;;10.20;5.85;;;;;;;22.89;62.64;101252.97;5141937;57;21536;-82
2021/07/22 10:34:20;;;;;;;17.27;6.22;;;;;;;23.02;64.49;101242.40;5190997;55;21161;-80
2021/07/22 10:40:07;;;;;;;8.30;4.90;;;;;;;23.20;62.96;101241.23;5182353;55;21214;-82
2021/07/22 10:45:24;;;;;;;6.08;4.70;;;;;;;23.20;61.90;101234.48;5181081;56;21505;-80
2021/07/22 10:50:58;;;;;;;7.60;4.90;;;;;;;23.05;58.98;101231.76;5199182;55;21168;-81
2021/07/22 10:56:05;;;;;;;11.83;4.87;;;;;;;23.10;61.21;101236.07;5196862;55;21162;-78
2021/07/22 11:01:11;;;;;;;6.45;4.75;;;;;;;23.07;60.63;101228.34;5213254;55;21181;-82
2021/07/22 11:06:17;;;;;;;7.10;4.62;;;;;;;23.02;60.92;101222.16;5159475;56;21468;-79
2021/07/22 11:11:22;;;;;;;11.05;5.62;;;;;;;22.96;60.19;101226.93;5112533;56;21168;-78
2021/07/22 11:16:32;;;;;;;12.78;6.40;;;;;;;22.86;60.63;101222.31;5146774;57;21173;-81
2021/07/22 11:21:39;;;;;;;11.48;5.60;;;;;;;22.71;61.09;101227.63;5217561;55;21151;-78
2021/07/22 11:26:46;;;;;;;16.35;7.12;;;;;;;22.68;62.02;101232.53;5113557;56;21179;-85
2021/07/22 11:32:02;;;;;;;17.35;5.97;;;;;;;22.61;62.28;101225.66;5166860;56;21196;-81
2021/07/22 11:37:05;;;;;;;8.85;5.40;;;;;;;22.56;61.54;101228.59;5145355;56;21142;-82
2021/07/22 11:42:15;;;;;;;6.92;5.30;;;;;;;22.48;61.71;101217.34;5214483;55;21151;-81
2021/07/22 11:47:22;;;;;;;13.55;6.35;;;;;;;22.39;61.72;101220.61;5130045;56;21206;-80
2021/07/22 11:52:35;;;;;;;10.55;6.00;;;;;;;22.28;62.02;101225.58;5148387;56;22022;-81
2021/07/22 11:57:44;;;;;;;9.50;5.30;;;;;;;22.27;62.33;101220.70;5197377;56;21144;-81
2021/07/22 12:02:57;;;;;;;17.15;5.87;;;;;;;22.25;62.47;101220.55;5201401;55;21167;-82
2021/07/22 12:08:18;;;;;;;9.95;5.87;;;;;;;22.26;62.68;101211.44;5172623;55;21546;-79
2021/07/22 12:13:24;;;;;;;12.98;5.40;;;;;;;22.23;62.54;101204.55;5185363;56;21095;-80
2021/07/22 12:18:29;;;;;;;7.15;5.37;;;;;;;22.28;63.03;101202.17;5101263;56;21162;-78
2021/07/22 12:23:35;;;;;;;9.93;5.97;;;;;;;22.36;62.60;101198.56;5137810;56;21195;-79
2021/07/22 12:28:41;;;;;;;8.50;5.40;;;;;;;22.40;62.49;101190.45;5135292;57;21620;-82
2021/07/22 12:34:02;;;;;;;8.33;5.35;;;;;;;22.51;62.91;101196.77;5145620;56;21519;-78
2021/07/22 12:39:28;;;;;;;9.33;4.42;;;;;;;22.59;61.70;101182.40;5134632;56;21582;-78
2021/07/22 12:44:44;;;;;;;7.20;5.03;;;;;;;22.61;61.19;101178.47;5117220;57;21179;-78
2021/07/22 12:49:50;;;;;;;5.85;4.05;;;;;;;22.75;60.93;101170.97;5085744;57;21221;-80
2021/07/22 12:55:04;;;;;;;9.03;4.90;;;;;;;22.85;59.79;101166.68;5141459;56;21110;-78
2021/07/22 13:00:13;;;;;;;11.48;5.12;;;;;;;22.91;57.46;101163.27;5180304;56;21196;-80
2021/07/22 13:05:18;;;;;;;4.85;4.45;;;;;;;23.10;59.31;101145.16;5060932;58;21162;-76
2021/07/22 13:10:24;;;;;;;8.98;4.35;;;;;;;23.36;58.19;101143.88;5070409;57;22061;-79
2021/07/22 13:15:30;;;;;;;14.75;4.75;;;;;;;23.60;55.93;101140.06;5117049;57;21492;-78
2021/07/22 13:20:36;;;;;;;7.12;4.40;;;;;;;23.87;56.63;101131.23;5061597;57;21203;-78
2021/07/22 13:25:42;;;;;;;7.42;4.92;;;;;;;23.95;55.20;101126.24;5088496;57;21166;-78
2021/07/22 13:30:50;;;;;;;5.85;4.05;;;;;;;23.80;55.73;101131.69;5081369;57;21682;-77
2021/07/22 13:35:56;;;;;;;6.72;4.62;;;;;;;23.64;55.06;101130.05;5034376;57;21207;-76
2021/07/22 13:41:03;;;;;;;6.67;5.80;;;;;;;23.44;55.21;101119.47;5148396;57;21139;-78
2021/07/22 13:46:10;;;;;;;8.15;5.00;;;;;;;23.29;55.86;101120.84;5149456;56;21657;-76
2021/07/22 13:51:16;;;;;;;10.55;4.40;;;;;;;23.17;56.51;101116.09;5140070;57;21108;-77
2021/07/22 13:56:21;;;;;;;9.20;4.90;;;;;;;23.07;57.38;101116.36;5173544;56;21660;-79
2021/07/22 14:01:27;;;;;;;9.40;5.25;;;;;;;23.00;57.32;101120.84;5195149;56;22105;-72
2021/07/22 14:06:33;;;;;;;5.25;4.75;;;;;;;22.86;57.37;101113.06;5196112;56;21180;-74
2021/07/22 14:11:39;;;;;;;9.65;5.28;;;;;;;22.79;57.71;101109.41;5177572;56;21067;-80
2021/07/22 14:16:45;;;;;;;7.67;4.97;;;;;;;22.69;57.79;101107.47;5139440;56;21174;-79
2021/07/22 14:21:51;;;;;;;8.85;5.83;;;;;;;22.68;57.66;101109.33;5107619;57;21546;-79
2021/07/22 14:26:57;;;;;;;6.22;5.20;;;;;;;22.71;57.71;101104.08;5225953;56;21190;-83
2021/07/22 14:32:03;;;;;;;5.58;4.92;;;;;;;22.78;58.03;101101.00;5179289;56;21144;-80
2021/07/22 14:37:08;;;;;;;7.10;5.05;;;;;;;22.86;57.84;101096.04;5201373;56;21616;-76
2021/07/22 14:42:14;;;;;;;12.00;5.00;;;;;;;22.97;58.09;101091.02;5218097;56;21222;-81
2021/07/22 14:47:20;;;;;;;11.70;8.83;;;;;;;23.11;57.86;101082.59;5177189;56;21096;-81
2021/07/22 14:52:26;;;;;;;11.03;9.20;;;;;;;23.20;57.89;101072.04;5203555;56;21186;-76
2021/07/22 14:57:31;;;;;;;17.40;9.25;;;;;;;23.33;57.46;101070.02;5199180;56;21176;-82
2021/07/22 15:02:37;;;;;;;9.60;6.50;;;;;;;23.51;57.76;101055.64;5171206;56;21140;-76
2021/07/22 15:07:43;;;;;;;5.80;5.15;;;;;;;23.75;56.18;101052.56;5158130;56;21163;-81
2021/07/22 15:12:50;;;;;;;5.65;5.10;;;;;;;23.83;56.06;101050.27;5143574;56;21222;-80
2021/07/22 15:17:56;;;;;;;8.08;5.67;;;;;;;23.82;56.59;101045.38;5169322;56;21175;-75
2021/07/22 15:23:02;;;;;;;15.15;6.28;;;;;;;23.79;56.88;101047.11;5190603;56;21190;-75
2021/07/22 15:28:08;;;;;;;10.80;6.33;;;;;;;23.74;56.81;101040.09;5202617;56;21155;-76
2021/07/22 15:33:13;;;;;;;7.92;6.20;;;;;;;23.77;56.43;101041.06;5124172;56;21192;-83
2021/07/22 15:38:19;;;;;;;10.15;5.72;;;;;;;23.75;55.13;101031.47;5197296;56;21554;-81
2021/07/22 15:43:25;;;;;;;8.40;5.95;;;;;;;23.64;55.09;101034.17;5239437;56;21168;-80
2021/07/22 15:48:30;;;;;;;9.20;5.55;;;;;;;23.61;55.09;101034.55;5216382;56;21660;-81
2021/07/22 15:53:36;;;;;;;4.97;4.47;;;;;;;23.60;56.33;101027.47;5144503;56;21629;-82
2021/07/22 15:58:42;;;;;;;9.38;5.50;;;;;;;23.61;56.90;101018.34;5153395;56;21173;-80
2021/07/22 16:03:47;;;;;;;9.50;5.70;;;;;;;23.66;57.02;101014.56;5140380;56;21168;-81
2021/07/22 16:08:53;;;;;;;16.57;6.95;;;;;;;23.71;56.92;101016.16;5195957;56;21151;-82
2021/07/22 16:13:59;;;;;;;8.15;5.40;;;;;;;23.84;57.08;101004.13;5245262;56;21155;-83
2021/07/22 16:19:04;;;;;;;10.98;5.78;;;;;;;24.01;57.34;100996.59;5214024;56;21154;-78
2021/07/22 16:24:10;;;;;;;11.35;5.28;;;;;;;24.03;56.01;100995.05;5204875;56;21182;-80
2021/07/22 16:29:16;;;;;;;7.08;5.33;;;;;;;24.05;55.85;100990.28;5192627;56;21187;-79
2021/07/22 16:34:21;;;;;;;11.30;4.72;;;;;;;24.00;55.51;100981.40;5207345;56;21190;-81
2021/07/22 16:39:27;;;;;;;14.60;5.72;;;;;;;24.02;55.24;100981.21;5246926;56;21690;-78
2021/07/22 16:44:33;;;;;;;9.13;4.97;;;;;;;24.04;56.21;100973.23;5244516;56;21151;-80
2021/07/22 16:49:39;;;;;;;9.80;5.28;;;;;;;24.10;55.86;100973.81;5241032;56;21155;-81
2021/07/22 16:54:45;;;;;;;7.80;5.03;;;;;;;24.10;55.94;100971.11;5243658;56;21161;-79
2021/07/22 16:59:51;;;;;;;4.83;4.28;;;;;;;24.04;54.98;100971.05;5243217;56;21495;-81
2021/07/22 17:04:57;;;;;;;17.60;6.28;;;;;;;23.90;54.56;100963.34;5249303;56;21154;-80
2021/07/22 17:10:04;;;;;;;14.33;6.35;;;;;;;23.74;54.57;100967.16;5243647;56;21591;-82
2021/07/22 17:15:11;;;;;;;7.58;5.50;;;;;;;23.71;55.79;100962.14;5242022;56;21104;-80
2021/07/22 17:20:17;;;;;;;17.32;5.72;;;;;;;23.76;56.23;100962.41;5156859;57;21162;-78
2021/07/22 17:25:23;;;;;;;15.83;8.73;;;;;;;23.73;55.99;100952.50;5240718;56;21210;-80
2021/07/22 17:30:28;;;;;;;8.83;5.50;;;;;;;23.76;56.00;100956.16;5241885;56;21108;-82
2021/07/22 17:35:33;;;;;;;13.40;5.28;;;;;;;23.78;56.30;100943.30;5160119;57;21531;-78
2021/07/22 17:40:41;;;;;;;12.93;6.25;;;;;;;23.76;56.15;100946.71;5241712;56;21190;-80
2021/07/22 17:45:47;;;;;;;7.40;5.10;;;;;;;23.68;56.07;100950.91;5155928;57;21104;-78
2021/07/22 17:50:53;;;;;;;9.08;5.05;;;;;;;23.60;56.00;100940.22;5243084;56;21190;-79
2021/07/22 17:55:58;;;;;;;7.25;6.17;;;;;;;23.48;56.07;100943.93;5157992;57;21663;-79
2021/07/22 18:01:05;;;;;;;11.57;5.78;;;;;;;23.40;56.45;100939.98;5243121;56;21190;-81
2021/07/22 18:06:11;;;;;;;8.08;5.47;;;;;;;23.29;57.00;100945.91;5159840;56;21162;-82
2021/07/22 18:11:17;;;;;;;10.43;5.42;;;;;;;23.23;57.29;100943.95;5168645;56;21148;-78
2021/07/22 18:16:22;;;;;;;12.00;5.75;;;;;;;23.14;57.75;100941.39;5145594;57;21163;-81
2021/07/22 18:21:28;;;;;;;8.68;5.67;;;;;;;23.06;58.12;100948.27;5197982;55;21197;-81
2021/07/22 18:26:34;;;;;;;11.05;5.90;;;;;;;23.04;58.64;100946.27;5195253;56;21156;-79
2021/07/22 18:32:15;;;;;;;11.63;7.00;;;;;;;22.98;58.94;100950.22;5122658;56;21191;-78
2021/07/22 18:37:23;;;;;;;15.00;6.50;;;;;;;22.92;59.32;100945.56;5197226;56;21083;-76
2021/07/22 18:42:29;;;;;;;11.88;6.78;;;;;;;22.85;59.83;100941.46;5198559;56;21116;-82
2021/07/22 18:47:36;;;;;;;24.32;8.03;;;;;;;22.73;60.16;100938.89;5207880;56;21158;-85
2021/07/22 18:52:43;;;;;;;10.65;6.03;;;;;;;22.60;60.63;100940.08;5205334;56;21203;-82
2021/07/22 18:57:49;;;;;;;14.93;6.73;;;;;;;22.57;61.06;100937.75;5206723;56;21714;-77
2021/07/22 19:02:55;;;;;;;9.45;7.17;;;;;;;22.51;61.28;100935.27;5159988;57;21197;-80
2021/07/22 19:08:00;;;;;;;11.08;7.87;;;;;;;22.45;61.54;100936.04;5155853;57;21166;-82
2021/07/22 19:13:10;;;;;;;16.52;7.87;;;;;;;22.36;61.78;100940.66;5229628;56;21155;-85
2021/07/22 19:18:16;;;;;;;9.48;6.97;;;;;;;22.24;62.07;100938.62;5245243;56;21163;-79
2021/07/22 19:23:22;;;;;;;12.18;7.40;;;;;;;22.11;62.29;100944.65;5243376;56;21093;-82
2021/07/22 19:28:26;;;;;;;11.75;7.05;;;;;;;;;;5246112;56;21159;-81
2021/07/22 19:33:33;;;;;;;9.95;7.90;;;;;;;21.90;63.25;100948.51;5246555;56;21634;-75
2021/07/22 19:38:39;;;;;;;16.10;8.93;;;;;;;21.79;63.56;100947.61;5244772;56;21160;-84
2021/07/22 19:43:45;;;;;;;12.23;8.90;;;;;;;21.73;63.90;100953.20;5242646;56;21191;-78
2021/07/22 19:48:51;;;;;;;18.23;8.45;;;;;;;21.66;64.17;100957.64;5244773;56;21187;-79
2021/07/22 19:53:58;;;;;;;12.33;7.75;;;;;;;21.56;64.53;100953.83;5157962;57;21190;-79
2021/07/22 19:59:06;;;;;;;19.00;8.55;;;;;;;21.52;64.79;100959.77;5155384;57;21184;-80
2021/07/22 20:04:11;;;;;;;13.58;8.73;;;;;;;21.45;65.11;100958.30;5158014;57;21158;-82
2021/07/22 20:09:16;;;;;;;17.35;8.53;;;;;;;21.37;65.37;100957.86;5163223;56;21201;-77
2021/07/22 20:14:22;;;;;;;12.23;6.87;;;;;;;21.27;65.82;100961.27;5244900;56;21105;-81
2021/07/22 20:19:30;;;;;;;11.18;8.60;;;;;;;21.22;66.03;100961.48;5261794;55;21146;-83
2021/07/22 20:24:35;;;;;;;18.98;8.78;;;;;;;21.17;66.27;100957.94;5140840;57;21119;-78
2021/07/22 20:29:41;;;;;;;13.45;8.03;;;;;;;21.20;66.37;100968.89;5139715;57;21454;-77
2021/07/22 20:34:47;;;;;;;17.85;9.15;;;;;;;21.22;66.46;100966.36;5139374;57;21164;-76
2021/07/22 20:39:52;;;;;;;16.75;8.68;;;;;;;21.21;66.54;100966.53;5138623;57;21198;-81
2021/07/22 20:44:58;;;;;;;24.35;9.10;;;;;;;21.21;66.79;100965.19;5139292;57;21186;-77
2021/07/22 20:50:08;;;;;;;16.07;8.50;;;;;;;21.13;67.00;100972.75;5189650;56;21494;-84
2021/07/22 20:55:13;;;;;;;13.62;8.75;;;;;;;21.06;67.17;100972.63;5200395;56;21256;-79
2021/07/22 21:00:22;;;;;;;13.62;8.73;;;;;;;20.97;67.21;100969.64;5194522;56;21191;-79
2021/07/22 21:05:28;;;;;;;9.53;7.10;;;;;;;20.94;67.30;100971.83;5236569;56;21699;-84
2021/07/22 21:10:35;;;;;;;12.20;8.50;;;;;;;20.90;67.48;100968.67;5219596;56;21136;-76
2021/07/22 21:15:41;;;;;;;10.82;7.95;;;;;;;20.85;67.53;100965.66;5168252;56;21217;-77
2021/07/22 21:20:47;;;;;;;20.40;8.55;;;;;;;20.85;67.50;100965.66;5168492;56;21541;-80
2021/07/22 21:25:53;;;;;;;16.25;10.13;;;;;;;20.87;67.58;100961.46;5165162;56;21161;-81
2021/07/22 21:30:59;;;;;;;19.77;11.03;;;;;;;20.93;67.79;100963.46;5161007;56;22108;-76
2021/07/22 21:36:05;;;;;;;12.15;9.03;;;;;;;21.03;67.85;100960.04;5159012;56;21189;-81
2021/07/22 21:41:11;;;;;;;14.28;9.30;;;;;;;21.12;67.81;100954.09;5161554;56;21172;-79
2021/07/22 21:46:17;;;;;;;15.38;9.50;;;;;;;21.14;67.75;100947.53;5161376;56;21125;-78
2021/07/22 21:51:25;;;;;;;15.85;9.83;;;;;;;21.17;67.90;100951.22;5164867;56;21605;-79
2021/07/22 21:56:30;;;;;;;13.32;9.08;;;;;;;21.15;67.53;100952.41;5157969;56;21176;-79
2021/07/22 22:01:36;;;;;;;20.08;8.78;;;;;;;21.05;67.64;100952.64;5158210;56;21196;-80
2021/07/22 22:06:42;;;;;;;19.67;8.83;;;;;;;20.95;67.94;100951.48;5161249;56;21665;-82
2021/07/22 22:11:48;;;;;;;12.55;8.90;;;;;;;20.92;68.17;100953.21;5210748;56;21493;-77
2021/07/22 22:16:54;;;;;;;11.28;8.65;;;;;;;20.91;68.04;100955.56;5241134;56;21183;-77
2021/07/22 22:21:59;;;;;;;16.17;9.05;;;;;;;20.89;68.14;100952.21;5237727;56;21228;-81
2021/07/22 22:27:05;;;;;;;16.42;8.60;;;;;;;20.81;67.92;100955.42;5245572;56;21156;-80
2021/07/22 22:32:11;;;;;;;11.57;7.75;;;;;;;20.67;68.14;100957.84;5245190;56;21167;-82
2021/07/22 22:37:17;;;;;;;17.12;8.40;;;;;;;20.57;68.30;100955.03;5245412;56;21171;-80
2021/07/22 22:42:22;;;;;;;14.75;8.68;;;;;;;20.46;68.43;100950.03;5246309;56;21187;-79
2021/07/22 22:47:28;;;;;;;11.40;8.10;;;;;;;20.44;68.74;100952.05;5244473;56;21194;-78
2021/07/22 22:52:34;;;;;;;17.37;9.18;;;;;;;20.44;68.73;100954.23;5242620;56;21147;-78
2021/07/22 22:57:40;;;;;;;15.55;9.08;;;;;;;20.51;68.96;100948.48;5244108;56;21144;-78
2021/07/22 23:02:47;;;;;;;16.62;9.53;;;;;;;20.59;68.87;100953.01;5247190;56;22299;-78
2021/07/22 23:07:53;;;;;;;11.35;7.33;;;;;;;20.62;69.18;100952.13;5239514;56;21600;-82
2021/07/22 23:12:58;;;;;;;18.20;9.58;;;;;;;20.62;68.92;100954.02;5177801;56;21172;-79
2021/07/22 23:18:04;;;;;;;10.93;7.85;;;;;;;20.61;68.80;100953.67;5165291;57;21786;-78
2021/07/22 23:23:10;;;;;;;15.75;7.75;;;;;;;20.49;68.62;100954.53;5160813;57;21174;-81
2021/07/22 23:28:16;;;;;;;11.20;8.23;;;;;;;20.32;68.68;100948.83;5161998;57;21224;-77
2021/07/22 23:33:22;;;;;;;10.20;8.35;;;;;;;20.29;68.78;100949.20;5162328;57;21172;-78
2021/07/22 23:38:28;;;;;;;12.88;7.62;;;;;;;20.30;69.12;100946.85;5165682;57;21527;-76
2021/07/22 23:43:34;;;;;;;13.45;9.05;;;;;;;20.34;69.07;100942.78;5160231;56;21161;-80